Time;durP1;ratioP1;P1;durP2;ratioP2;P2;SDS_P1;SDS_P2;PMS_P1;PMS_P2;Temp;Humidity;BMP_temperature;BMP_pressure;BME280_temperature;BME280_humidity;BME280_pressure;Samples;Min_cycle;Max_cycle;Signal;HPM_P1;HPM_P2
2021/06/05 00:00:09;;;;;;;2.17;1.63;;;14.60;77.10;;;;;;5092212;28;20047;-75
2021/06/05 00:02:35;;;;;;;3.22;1.95;;;14.60;77.40;;;;;;5092377;28;20024;-75
2021/06/05 00:05:00;;;;;;;3.63;1.98;;;14.50;77.50;;;;;;5075476;28;20019;-75
2021/06/05 00:07:27;;;;;;;2.72;1.70;;;14.50;77.80;;;;;;5092132;28;20333;-75
2021/06/05 00:09:52;;;;;;;2.80;2.10;;;14.40;77.80;;;;;;5092582;28;20008;-75
2021/06/05 00:12:21;;;;;;;4.68;2.40;;;14.40;78.00;;;;;;5094153;28;20012;-75
2021/06/05 00:14:46;;;;;;;2.78;2.00;;;14.40;78.20;;;;;;5074717;28;20019;-75
2021/06/05 00:17:12;;;;;;;3.20;2.25;;;14.40;78.30;;;;;;5092526;28;20028;-75
2021/06/05 00:19:38;;;;;;;2.97;1.95;;;14.40;78.30;;;;;;5095000;28;20008;-75
2021/06/05 00:22:04;;;;;;;5.10;2.17;;;14.40;78.40;;;;;;5079387;28;20028;-75
2021/06/05 00:24:30;;;;;;;5.20;2.58;;;14.40;78.30;;;;;;5093458;28;20032;-75
2021/06/05 00:26:56;;;;;;;5.40;2.47;;;14.40;78.20;;;;;;5094005;28;20020;-75
2021/06/05 00:29:22;;;;;;;5.35;2.13;;;14.30;78.20;;;;;;5077540;28;20031;-75
2021/06/05 00:31:48;;;;;;;4.55;1.95;;;14.30;78.40;;;;;;5093829;28;20008;-75
2021/06/05 00:34:13;;;;;;;6.90;2.10;;;14.30;78.50;;;;;;5096867;28;20084;-75
2021/06/05 00:36:39;;;;;;;4.72;2.20;;;14.30;78.50;;;;;;5097020;28;20044;-75
2021/06/05 00:39:05;;;;;;;2.97;2.35;;;14.20;78.50;;;;;;5097276;28;20015;-75
2021/06/05 00:41:31;;;;;;;1.48;1.23;;;14.20;78.50;;;;;;5098213;28;20008;-75
2021/06/05 00:43:59;;;;;;;2.17;1.30;;;14.20;78.50;;;;;;5097612;28;19988;-75
2021/06/05 00:46:25;;;;;;;4.63;1.40;;;14.30;78.50;;;;;;5098484;28;20015;-75
2021/06/05 00:48:51;;;;;;;1.55;1.10;;;14.30;78.50;;;;;;5097526;28;20068;-75
2021/06/05 00:51:17;;;;;;;1.25;0.90;;;14.30;78.30;;;;;;5098416;28;20019;-75
2021/06/05 00:53:43;;;;;;;0.90;0.70;;;14.30;78.40;;;;;;5098363;28;20000;-75
2021/06/05 00:56:10;;;;;;;0.70;0.70;;;14.30;78.30;;;;;;5097424;28;20073;-75
2021/06/05 00:58:36;;;;;;;1.10;0.85;;;14.40;78.10;;;;;;5097487;28;20024;-75
2021/06/05 01:01:12;;;;;;;1.75;1.30;;;14.40;78.00;;;;;;5097571;28;20036;-75
2021/06/05 01:03:37;;;;;;;1.73;1.23;;;14.30;77.90;;;;;;5097941;28;20001;-75
2021/06/05 01:06:16;;;;;;;1.77;1.30;;;14.20;78.20;;;;;;5096539;28;20108;-75
2021/06/05 01:09:03;;;;;;;2.30;1.00;;;14.10;78.40;;;;;;5080174;28;20127;-75
2021/06/05 01:11:47;;;;;;;1.77;1.45;;;14.10;78.80;;;;;;5097323;28;20008;-75
2021/06/05 01:14:34;;;;;;;1.35;1.23;;;14.10;79.00;;;;;;5098236;28;20031;-75
2021/06/05 01:17:05;;;;;;;0.95;0.80;;;14.00;79.10;;;;;;5097837;28;20025;-75
2021/06/05 01:19:43;;;;;;;1.83;0.60;;;14.00;79.30;;;;;;5097423;28;20047;-75
2021/06/05 01:22:17;;;;;;;1.13;0.70;;;14.00;79.20;;;;;;5097498;28;20009;-75
2021/06/05 01:24:44;;;;;;;2.45;1.40;;;14.00;79.00;;;;;;5097852;28;20080;-75
2021/06/05 01:27:11;;;;;;;2.53;1.42;;;14.00;79.30;;;;;;5096782;28;20025;-75
2021/06/05 01:29:40;;;;;;;2.95;1.40;;;13.90;79.50;;;;;;5079660;28;20012;-75
2021/06/05 01:32:07;;;;;;;2.17;1.35;;;13.90;79.50;;;;;;5096397;28;20020;-74
2021/06/05 01:34:43;;;;;;;3.05;1.35;;;13.80;79.60;;;;;;5079844;28;20111;-75
2021/06/05 01:37:10;;;;;;;2.78;1.48;;;13.80;79.70;;;;;;5096461;28;20062;-75
2021/06/05 01:39:36;;;;;;;2.53;1.48;;;13.80;79.90;;;;;;5096473;28;20077;-75
2021/06/05 01:42:08;;;;;;;2.58;1.10;;;13.80;79.90;;;;;;5079546;28;20009;-75
2021/06/05 01:44:33;;;;;;;1.67;1.25;;;13.80;80.00;;;;;;5096192;28;20034;-75
2021/06/05 01:46:59;;;;;;;1.00;0.93;;;13.80;79.90;;;;;;5079920;28;20020;-75
2021/06/05 01:49:25;;;;;;;1.80;1.10;;;13.80;79.70;;;;;;5096426;28;20024;-75
2021/06/05 01:51:55;;;;;;;1.20;0.93;;;13.90;79.80;;;;;;5096598;28;20008;-75
2021/06/05 01:54:46;;;;;;;1.92;1.10;;;13.80;79.60;;;;;;5096152;28;20332;-75
2021/06/05 01:57:17;;;;;;;4.75;1.40;;;13.80;79.60;;;;;;5096183;28;20016;-75
2021/06/05 01:59:43;;;;;;;2.90;1.70;;;13.80;79.70;;;;;;5079562;28;20015;-75
2021/06/05 02:02:09;;;;;;;3.50;2.08;;;13.80;80.00;;;;;;5094007;28;20012;-75
2021/06/05 02:04:35;;;;;;;5.35;2.45;;;13.70;80.10;;;;;;5079102;28;20027;-75
2021/06/05 02:07:01;;;;;;;3.60;2.05;;;13.70;80.20;;;;;;5096807;28;20037;-75
2021/06/05 02:09:27;;;;;;;3.15;2.28;;;13.70;80.20;;;;;;5095977;28;20038;-75
2021/06/05 02:12:00;;;;;;;4.35;2.35;;;13.70;80.10;;;;;;5079670;28;20023;-75
2021/06/05 02:14:30;;;;;;;5.88;2.30;;;13.70;80.00;;;;;;5096115;28;20018;-75
2021/06/05 02:16:55;;;;;;;4.70;2.50;;;13.70;80.10;;;;;;5095708;28;20029;-75
2021/06/05 02:19:32;;;;;;;3.05;2.03;;;13.70;80.00;;;;;;5095735;28;20015;-75
2021/06/05 02:22:00;;;;;;;2.88;1.95;;;13.70;80.10;;;;;;5096187;28;20081;-75
2021/06/05 02:24:30;;;;;;;3.63;2.05;;;13.70;80.10;;;;;;5096378;28;20017;-74
2021/06/05 02:26:57;;;;;;;3.58;2.13;;;13.70;80.20;;;;;;5095850;28;20028;-74
2021/06/05 02:29:25;;;;;;;8.05;2.30;;;13.70;80.20;;;;;;5078700;28;20024;-74
2021/06/05 02:31:50;;;;;;;2.97;1.90;;;13.70;80.30;;;;;;5095409;28;20001;-74
2021/06/05 02:34:21;;;;;;;5.13;2.50;;;13.70;80.10;;;;;;5097139;28;20321;-74
2021/06/05 02:36:47;;;;;;;3.63;2.20;;;13.70;80.10;;;;;;5096363;28;20092;-74
2021/06/05 02:39:14;;;;;;;4.25;1.83;;;13.80;79.90;;;;;;5096731;28;20028;-73
2021/06/05 02:41:43;;;;;;;3.40;2.13;;;13.80;79.80;;;;;;5079638;28;20024;-73
2021/06/05 02:44:09;;;;;;;7.03;2.33;;;13.80;79.70;;;;;;5096850;28;20079;-73
2021/06/05 02:46:37;;;;;;;2.50;1.85;;;13.80;79.80;;;;;;5095946;28;20012;-74
2021/06/05 02:49:21;;;;;;;4.32;1.95;;;13.80;79.80;;;;;;5095630;28;20034;-73
2021/06/05 02:51:49;;;;;;;3.78;2.17;;;13.70;79.70;;;;;;5094880;28;20047;-74
2021/06/05 02:54:15;;;;;;;3.70;2.13;;;13.70;79.70;;;;;;5095538;28;20072;-74
2021/06/05 02:56:41;;;;;;;3.78;2.30;;;13.70;79.70;;;;;;5095486;28;20024;-74
2021/06/05 02:59:06;;;;;;;5.00;2.30;;;13.80;79.60;;;;;;5078117;28;20076;-74
2021/06/05 03:01:33;;;;;;;3.78;2.28;;;13.80;79.30;;;;;;5078427;28;20060;-74
2021/06/05 03:04:00;;;;;;;3.58;2.28;;;13.90;79.00;;;;;;5096077;28;20100;-74
2021/06/05 03:06:30;;;;;;;4.20;2.47;;;13.90;78.50;;;;;;5096796;28;20322;-73
2021/06/05 03:08:57;;;;;;;5.70;2.25;;;13.90;78.30;;;;;;5096708;28;20034;-74
2021/06/05 03:11:23;;;;;;;3.28;2.28;;;14.00;78.00;;;;;;5079800;28;20027;-74
2021/06/05 03:13:49;;;;;;;3.63;2.22;;;14.10;77.50;;;;;;5097238;28;20012;-74
2021/06/05 03:16:15;;;;;;;3.30;2.03;;;14.10;77.30;;;;;;5097004;28;20019;-74
2021/06/05 03:18:41;;;;;;;4.72;2.50;;;14.20;77.00;;;;;;5095836;28;20035;-74
2021/06/05 03:21:08;;;;;;;4.93;2.30;;;14.20;76.60;;;;;;5079047;28;19997;-74
2021/06/05 03:23:34;;;;;;;5.88;2.25;;;14.30;76.30;;;;;;5078123;28;20038;-74
2021/06/05 03:25:59;;;;;;;5.20;2.38;;;14.40;75.90;;;;;;5094653;28;20040;-75
2021/06/05 03:28:27;;;;;;;2.92;1.80;;;14.40;75.80;;;;;;5077672;28;20027;-75
2021/06/05 03:30:53;;;;;;;2.88;1.90;;;14.50;75.70;;;;;;5094448;28;20012;-75
2021/06/05 03:33:21;;;;;;;4.28;2.13;;;14.50;75.60;;;;;;5095532;28;20012;-75
2021/06/05 03:35:47;;;;;;;3.55;2.03;;;14.50;75.30;;;;;;5094599;28;20031;-75
2021/06/05 03:38:13;;;;;;;3.25;1.50;;;14.60;75.20;;;;;;5093779;28;20063;-75
2021/06/05 03:40:39;;;;;;;3.33;1.77;;;14.60;75.10;;;;;;5094913;28;20031;-75
2021/06/05 03:43:05;;;;;;;2.38;1.58;;;14.70;74.90;;;;;;5093416;28;20008;-75
2021/06/05 03:45:31;;;;;;;3.13;1.95;;;14.70;74.90;;;;;;5076916;28;20005;-75
2021/06/05 03:47:59;;;;;;;2.88;1.85;;;14.70;74.70;;;;;;5094775;28;20099;-75
2021/06/05 03:50:27;;;;;;;4.38;1.77;;;14.80;74.40;;;;;;5078752;28;20020;-75
2021/06/05 03:52:53;;;;;;;2.72;1.73;;;14.80;74.00;;;;;;5095282;28;20054;-75
2021/06/05 03:55:19;;;;;;;5.85;2.28;;;14.90;73.80;;;;;;5097572;28;20012;-75
2021/06/05 03:57:45;;;;;;;6.40;2.10;;;14.90;73.50;;;;;;5079146;28;20031;-75
2021/06/05 04:00:17;;;;;;;4.72;1.80;;;15.00;73.40;;;;;;5074826;28;20012;-75
2021/06/05 04:02:43;;;;;;;7.18;2.17;;;15.00;73.00;;;;;;5091384;28;20025;-74
2021/06/05 04:05:09;;;;;;;3.40;1.88;;;15.10;73.00;;;;;;5090557;28;20016;-74
2021/06/05 04:07:35;;;;;;;3.28;1.90;;;15.10;73.10;;;;;;5073620;28;20032;-74
2021/06/05 04:10:01;;;;;;;3.85;1.95;;;15.20;72.80;;;;;;5072873;28;20016;-75
2021/06/05 04:12:26;;;;;;;3.35;1.90;;;15.20;72.40;;;;;;5090389;28;20035;-76
2021/06/05 04:14:52;;;;;;;5.90;1.90;;;15.30;72.30;;;;;;5090977;28;20027;-76
2021/06/05 04:17:17;;;;;;;3.35;2.00;;;15.30;72.10;;;;;;5089148;28;20028;-76
2021/06/05 04:19:43;;;;;;;3.40;1.70;;;15.40;72.00;;;;;;5088995;28;20071;-76
2021/06/05 04:22:09;;;;;;;2.60;1.73;;;15.40;71.80;;;;;;5072212;28;20031;-76
2021/06/05 04:24:36;;;;;;;3.25;2.05;;;15.50;71.50;;;;;;5072652;28;20016;-76
2021/06/05 04:27:01;;;;;;;4.70;1.88;;;15.50;71.20;;;;;;5090210;28;20012;-76
2021/06/05 04:29:27;;;;;;;2.65;1.77;;;15.60;71.20;;;;;;5089560;28;20012;-76
2021/06/05 04:31:53;;;;;;;4.28;1.88;;;15.60;71.00;;;;;;5072839;28;20096;-76
2021/06/05 04:34:19;;;;;;;2.65;1.50;;;15.70;71.70;;;;;;5072673;28;20083;-76
2021/06/05 04:36:45;;;;;;;4.03;1.90;;;15.80;70.60;;;;;;5091584;28;20357;-76
2021/06/05 04:39:11;;;;;;;3.15;1.92;;;15.90;70.30;;;;;;5096447;28;20021;-76
2021/06/05 04:41:36;;;;;;;4.53;1.67;;;16.00;70.20;;;;;;5072566;28;20210;-76
2021/06/05 04:44:02;;;;;;;2.10;1.50;;;16.10;69.80;;;;;;5072230;28;20023;-76
2021/06/05 04:46:28;;;;;;;2.92;1.30;;;16.20;69.60;;;;;;5071992;28;20071;-76
2021/06/05 04:48:53;;;;;;;1.48;1.10;;;16.30;69.40;;;;;;5088759;28;20081;-76
2021/06/05 04:51:21;;;;;;;1.65;1.08;;;16.40;69.00;;;;;;5090225;28;20027;-76
2021/06/05 04:53:47;;;;;;;1.20;0.93;;;16.50;68.90;;;;;;5090530;28;20023;-76
2021/06/05 04:56:13;;;;;;;1.65;1.08;;;16.60;68.40;;;;;;5096591;28;20009;-76
2021/06/05 04:58:38;;;;;;;2.13;1.10;;;16.70;67.80;;;;;;5079790;28;20047;-76
2021/06/05 05:01:04;;;;;;;1.75;1.10;;;16.80;67.50;;;;;;5073221;28;20009;-76
2021/06/05 05:03:30;;;;;;;1.08;0.88;;;17.00;67.70;;;;;;5088686;28;20059;-76
2021/06/05 05:05:59;;;;;;;1.92;1.10;;;17.10;67.10;;;;;;5087985;28;20005;-77
2021/06/05 05:08:25;;;;;;;1.67;1.10;;;17.10;66.70;;;;;;5096748;28;20306;-76
2021/06/05 05:10:51;;;;;;;3.13;1.10;;;17.20;66.60;;;;;;5097530;28;20012;-76
2021/06/05 05:13:22;;;;;;;2.58;1.48;;;17.30;66.60;;;;;;5097945;28;20013;-77
2021/06/05 05:15:48;;;;;;;;;;;17.40;66.00;;;;;;5079441;28;20015;-76
2021/06/05 05:18:14;;;;;;;1.85;1.40;;;17.40;65.40;;;;;;5096537;28;19924;-76
2021/06/05 05:20:40;;;;;;;2.25;1.20;;;17.30;66.20;;;;;;5095413;28;20017;-76
2021/06/05 05:23:07;;;;;;;2.05;1.25;;;17.20;67.00;;;;;;5094886;28;20012;-77
2021/06/05 05:25:32;;;;;;;2.35;1.33;;;17.20;67.00;;;;;;5078132;28;20027;-76
2021/06/05 05:27:58;;;;;;;2.17;1.40;;;17.10;67.80;;;;;;5075417;28;20017;-76
2021/06/05 05:30:27;;;;;;;2.25;1.30;;;17.10;67.50;;;;;;5091856;28;20005;-76
2021/06/05 05:32:53;;;;;;;3.08;1.85;;;17.10;67.30;;;;;;5095992;28;20020;-77
2021/06/05 05:35:19;;;;;;;2.05;1.60;;;17.00;68.40;;;;;;5096523;28;20016;-76
2021/06/05 05:37:45;;;;;;;2.38;1.60;;;17.00;69.10;;;;;;5096760;28;20040;-77
2021/06/05 05:40:11;;;;;;;3.05;1.60;;;17.10;69.30;;;;;;5096442;28;20032;-76
2021/06/05 05:42:37;;;;;;;2.45;1.40;;;17.10;69.30;;;;;;5079208;28;20025;-76
2021/06/05 05:45:04;;;;;;;1.15;0.80;;;17.10;69.10;;;;;;5097186;28;20020;-77
2021/06/05 05:47:30;;;;;;;1.48;1.00;;;17.20;69.10;;;;;;5096933;28;20037;-76
2021/06/05 05:49:56;;;;;;;1.10;0.88;;;17.20;68.70;;;;;;5097823;28;20047;-76
2021/06/05 05:52:22;;;;;;;0.85;0.70;;;17.30;68.90;;;;;;5079261;28;19996;-76
2021/06/05 05:54:48;;;;;;;0.63;0.60;;;17.40;68.70;;;;;;5096524;28;20087;-77
2021/06/05 05:57:14;;;;;;;1.35;0.80;;;17.60;68.00;;;;;;5095585;28;20029;-76
2021/06/05 05:59:40;;;;;;;1.50;1.17;;;17.80;67.50;;;;;;5094342;28;20597;-76
2021/06/05 06:02:06;;;;;;;3.95;1.65;;;17.90;67.30;;;;;;5095712;28;20008;-76
2021/06/05 06:04:31;;;;;;;2.63;1.70;;;17.90;67.60;;;;;;5095646;28;20009;-77
2021/06/05 06:06:57;;;;;;;2.67;1.55;;;18.40;66.10;;;;;;5095903;28;20072;-77
2021/06/05 06:09:23;;;;;;;2.97;1.30;;;19.40;63.10;;;;;;5096674;28;20038;-77
2021/06/05 06:11:48;;;;;;;1.45;1.05;;;20.20;60.50;;;;;;5095796;28;20027;-77
2021/06/05 06:14:14;;;;;;;1.88;1.38;;;20.70;58.80;;;;;;5096206;28;20012;-77
2021/06/05 06:16:40;;;;;;;1.42;1.20;;;21.00;57.10;;;;;;5094655;28;20206;-77
2021/06/05 06:19:06;;;;;;;1.67;0.88;;;21.30;57.00;;;;;;5078368;28;20004;-77
2021/06/05 06:21:32;;;;;;;1.80;1.20;;;21.80;55.90;;;;;;5096058;28;20012;-77
2021/06/05 06:23:58;;;;;;;1.25;0.93;;;22.00;54.40;;;;;;5095223;28;20028;-77
2021/06/05 06:26:26;;;;;;;1.00;0.90;;;22.10;54.20;;;;;;5096820;28;20016;-76
2021/06/05 06:28:52;;;;;;;0.73;0.70;;;22.50;53.90;;;;;;5095746;28;20032;-76
2021/06/05 06:31:18;;;;;;;1.02;0.90;;;22.70;53.40;;;;;;5095620;28;20039;-76
2021/06/05 06:33:44;;;;;;;0.63;0.63;;;22.90;52.50;;;;;;5095618;28;20031;-76
2021/06/05 06:36:10;;;;;;;2.33;1.10;;;23.00;51.60;;;;;;5079151;28;20076;-76
2021/06/05 06:38:40;;;;;;;2.42;1.23;;;22.80;50.40;;;;;;5095695;28;20086;-76
2021/06/05 06:41:14;;;;;;;1.30;0.80;;;22.60;50.80;;;;;;5096236;28;20004;-76
2021/06/05 06:43:40;;;;;;;2.45;1.20;;;22.70;51.00;;;;;;5096475;28;20007;-76
2021/06/05 06:46:08;;;;;;;3.65;1.20;;;23.00;50.10;;;;;;5078991;28;20016;-76
2021/06/05 06:48:34;;;;;;;5.38;1.38;;;22.90;50.10;;;;;;5095868;28;20017;-76
2021/06/05 06:51:00;;;;;;;1.55;1.13;;;22.70;50.30;;;;;;5095561;28;20016;-76
2021/06/05 06:53:26;;;;;;;1.80;0.98;;;22.70;50.60;;;;;;5078406;28;20383;-76
2021/06/05 06:55:52;;;;;;;3.95;1.40;;;22.80;50.40;;;;;;5096042;28;20054;-76
2021/06/05 06:58:17;;;;;;;3.22;1.50;;;23.00;48.70;;;;;;5095722;28;20039;-75
2021/06/05 07:00:45;;;;;;;4.93;2.00;;;23.00;47.50;;;;;;5095800;28;20009;-75
2021/06/05 07:03:10;;;;;;;2.42;1.00;;;23.10;47.90;;;;;;5078359;28;20013;-76
2021/06/05 07:05:37;;;;;;;1.33;1.05;;;23.30;48.20;;;;;;5096754;28;20039;-76
2021/06/05 07:08:23;;;;;;;2.45;1.30;;;23.80;47.10;;;;;;5095383;28;20005;-75
2021/06/05 07:10:54;;;;;;;2.90;1.42;;;24.20;45.80;;;;;;5095760;28;20017;-75
2021/06/05 07:13:20;;;;;;;;;;;24.30;45.00;;;;;;5096680;28;20004;-76
2021/06/05 07:15:47;;;;;;;3.47;1.40;;;24.20;44.80;;;;;;5096708;28;19922;-75
2021/06/05 07:18:15;;;;;;;2.45;1.33;;;24.40;44.90;;;;;;5079328;28;20031;-75
2021/06/05 07:20:44;;;;;;;2.92;1.63;;;24.40;43.60;;;;;;5096950;28;20017;-74
2021/06/05 07:23:10;;;;;;;2.13;1.48;;;24.30;43.10;;;;;;5078903;28;19996;-75
2021/06/05 07:25:36;;;;;;;1.70;1.20;;;24.30;43.70;;;;;;5096026;28;20036;-75
2021/06/05 07:28:16;;;;;;;4.03;1.42;;;24.40;43.10;;;;;;5095008;28;20004;-75
2021/06/05 07:30:42;;;;;;;2.90;1.30;;;24.50;42.40;;;;;;5094288;28;20004;-75
2021/06/05 07:33:08;;;;;;;3.15;1.38;;;24.50;41.80;;;;;;5095947;28;20040;-75
2021/06/05 07:35:34;;;;;;;3.78;1.63;;;24.20;41.80;;;;;;5077977;28;20032;-75
2021/06/05 07:37:59;;;;;;;1.60;1.20;;;24.20;42.40;;;;;;5096013;28;20029;-75
2021/06/05 07:40:26;;;;;;;3.70;1.30;;;24.40;42.70;;;;;;5095476;28;20048;-74
2021/06/05 07:42:51;;;;;;;2.45;1.38;;;24.80;42.30;;;;;;5095334;28;20028;-74
2021/06/05 07:45:18;;;;;;;3.53;1.20;;;25.00;41.50;;;;;;5095457;28;20210;-75
2021/06/05 07:47:43;;;;;;;2.17;1.30;;;25.30;41.00;;;;;;5095159;28;20028;-75
2021/06/05 07:50:11;;;;;;;1.23;1.10;;;25.20;40.40;;;;;;5094497;28;20032;-75
2021/06/05 07:52:36;;;;;;;2.17;1.20;;;25.20;40.90;;;;;;5077940;28;20008;-75
2021/06/05 07:55:03;;;;;;;1.45;1.00;;;25.40;39.40;;;;;;5094178;28;20051;-75
2021/06/05 07:57:29;;;;;;;1.40;1.10;;;25.60;40.20;;;;;;5094529;28;20040;-75
2021/06/05 07:59:54;;;;;;;2.25;1.40;;;25.80;39.80;;;;;;5095479;28;20016;-75
2021/06/05 08:02:20;;;;;;;2.25;1.40;;;25.50;39.30;;;;;;5093014;28;20007;-75
2021/06/05 08:04:46;;;;;;;3.25;1.30;;;25.30;39.40;;;;;;5093028;28;20270;-74
2021/06/05 08:07:12;;;;;;;2.25;0.90;;;25.40;39.60;;;;;;5095509;28;20040;-75
2021/06/05 08:09:37;;;;;;;2.80;1.50;;;26.00;39.70;;;;;;5095384;28;20020;-75
2021/06/05 08:12:04;;;;;;;2.00;1.23;;;25.50;37.70;;;;;;5095517;28;20051;-75
2021/06/05 08:14:29;;;;;;;1.88;1.27;;;25.40;37.70;;;;;;5079219;28;20016;-75
2021/06/05 08:16:55;;;;;;;1.60;1.13;;;25.20;38.60;;;;;;5096214;28;20025;-75
2021/06/05 08:19:21;;;;;;;3.75;1.50;;;25.20;39.20;;;;;;5095111;28;20025;-75
2021/06/05 08:21:47;;;;;;;3.33;1.30;;;25.10;38.50;;;;;;5094835;28;20009;-75
2021/06/05 08:24:14;;;;;;;2.53;1.35;;;25.30;39.10;;;;;;5094717;28;20089;-76
2021/06/05 08:26:40;;;;;;;1.80;1.25;;;25.30;39.30;;;;;;5094080;28;20007;-75
2021/06/05 08:29:06;;;;;;;2.25;1.30;;;25.20;38.50;;;;;;5094073;28;20088;-75
2021/06/05 08:31:31;;;;;;;2.17;1.25;;;25.30;38.30;;;;;;5095922;28;20375;-75
2021/06/05 08:33:57;;;;;;;2.28;1.30;;;25.40;38.20;;;;;;5095314;28;20043;-75
2021/06/05 08:36:24;;;;;;;1.48;1.00;;;25.80;37.00;;;;;;5077351;28;20012;-76
2021/06/05 08:38:50;;;;;;;4.20;1.50;;;26.30;36.20;;;;;;5093590;28;20048;-76
2021/06/05 08:41:18;;;;;;;2.42;1.48;;;26.40;35.50;;;;;;5080043;28;20088;-75
2021/06/05 08:43:49;;;;;;;1.98;1.40;;;26.20;34.90;;;;;;5098374;28;20004;-75
2021/06/05 08:46:21;;;;;;;2.40;1.40;;;25.90;34.60;;;;;;5081725;28;20013;-75
2021/06/05 08:48:47;;;;;;;3.40;1.40;;;25.90;34.40;;;;;;5098125;28;20020;-75
2021/06/05 08:51:19;;;;;;;1.35;1.23;;;26.00;34.00;;;;;;5098986;28;20080;-75
2021/06/05 08:53:45;;;;;;;1.63;1.08;;;26.00;34.80;;;;;;5098779;28;20042;-75
2021/06/05 08:56:16;;;;;;;4.60;1.27;;;26.50;34.00;;;;;;5097691;28;20098;-75
2021/06/05 08:58:51;;;;;;;2.20;1.27;;;26.50;34.20;;;;;;5097830;28;20023;-75
2021/06/05 09:01:36;;;;;;;1.70;1.30;;;26.50;34.20;;;;;;5097829;28;20013;-75
2021/06/05 09:04:09;;;;;;;2.00;1.35;;;26.40;34.20;;;;;;5081745;28;20020;-75
2021/06/05 09:06:38;;;;;;;1.85;1.00;;;26.40;34.30;;;;;;5080797;28;20313;-75
2021/06/05 09:09:08;;;;;;;3.35;1.40;;;26.30;34.60;;;;;;5097289;28;20023;-76
2021/06/05 09:11:34;;;;;;;2.70;1.15;;;26.10;35.10;;;;;;5097501;28;20012;-75
2021/06/05 09:14:00;;;;;;;3.63;1.40;;;26.00;35.00;;;;;;5096902;28;20025;-75
2021/06/05 09:16:39;;;;;;;1.42;1.00;;;25.90;35.60;;;;;;5097799;28;20024;-75
2021/06/05 09:19:08;;;;;;;5.05;1.77;;;26.00;34.80;;;;;;5097697;28;20035;-75
2021/06/05 09:21:46;;;;;;;3.10;1.45;;;26.20;33.90;;;;;;5097950;28;20048;-76
2021/06/05 09:24:19;;;;;;;3.55;1.30;;;26.00;33.70;;;;;;5097239;28;20084;-75
2021/06/05 09:27:13;;;;;;;3.50;1.45;;;26.20;34.80;;;;;;5097713;28;20016;-76
2021/06/05 09:29:54;;;;;;;4.82;1.55;;;26.20;34.50;;;;;;5097104;28;20030;-76
2021/06/05 09:32:22;;;;;;;2.35;1.33;;;25.50;35.10;;;;;;5096995;28;20019;-76
2021/06/05 09:35:05;;;;;;;3.15;1.30;;;25.70;36.00;;;;;;5096384;28;20019;-76
2021/06/05 09:37:36;;;;;;;7.15;3.45;;;26.30;35.60;;;;;;5097133;28;20045;-76
2021/06/05 09:40:35;;;;;;;4.72;2.53;;;26.20;34.80;;;;;;5097031;28;20042;-76
2021/06/05 09:43:10;;;;;;;4.25;1.70;;;26.30;35.30;;;;;;5096512;28;20013;-77
2021/06/05 09:45:46;;;;;;;2.45;1.30;;;26.30;34.90;;;;;;5096698;28;20028;-76
2021/06/05 09:48:14;;;;;;;3.45;1.67;;;26.10;35.40;;;;;;5097131;28;20031;-75
2021/06/05 09:50:43;;;;;;;2.53;1.40;;;25.80;36.50;;;;;;5097599;28;20019;-75
2021/06/05 09:53:11;;;;;;;4.03;1.48;;;25.90;36.70;;;;;;5097007;28;20009;-75
2021/06/05 09:55:37;;;;;;;2.03;1.25;;;26.00;36.10;;;;;;5097250;28;20064;-75
2021/06/05 09:58:08;;;;;;;1.80;1.30;;;25.90;36.60;;;;;;5097875;28;20280;-75
2021/06/05 10:00:37;;;;;;;2.58;1.40;;;26.00;37.00;;;;;;5096864;28;20007;-75
2021/06/05 10:03:28;;;;;;;2.53;1.40;;;26.20;37.10;;;;;;5097958;28;19989;-75
2021/06/05 10:05:54;;;;;;;2.13;1.30;;;26.50;37.10;;;;;;5096556;28;20015;-75
2021/06/05 10:08:22;;;;;;;2.20;1.30;;;26.20;36.40;;;;;;5096775;28;20012;-75
2021/06/05 10:10:50;;;;;;;1.70;1.40;;;26.00;37.10;;;;;;5097578;28;20034;-75
2021/06/05 10:13:20;;;;;;;2.08;1.40;;;25.80;37.20;;;;;;5080289;28;20029;-75
2021/06/05 10:15:56;;;;;;;;;;;26.10;37.10;;;;;;5097068;28;20028;-75
2021/06/05 10:18:27;;;;;;;2.97;1.40;;;25.90;36.60;;;;;;5096040;28;19904;-75
2021/06/05 10:20:55;;;;;;;1.65;1.10;;;26.20;35.60;;;;;;5096211;28;20012;-75
2021/06/05 10:23:29;;;;;;;1.52;1.00;;;26.80;36.40;;;;;;5096652;28;20007;-75
2021/06/05 10:26:01;;;;;;;1.88;1.20;;;27.00;35.50;;;;;;5096913;28;20016;-76
2021/06/05 10:28:37;;;;;;;5.38;1.85;;;27.20;34.50;;;;;;5096373;28;20016;-77
2021/06/05 10:31:16;;;;;;;2.60;1.75;;;26.80;33.30;;;;;;5096400;28;20004;-77
2021/06/05 10:33:46;;;;;;;3.95;2.15;;;26.90;32.60;;;;;;5095842;28;20012;-76
2021/06/05 10:36:20;;;;;;;4.82;2.55;;;26.50;33.00;;;;;;5094044;28;20044;-76
2021/06/05 10:38:53;;;;;;;5.90;2.50;;;26.60;33.10;;;;;;5094138;28;20040;-76
2021/06/05 10:41:28;;;;;;;2.92;1.63;;;27.00;36.30;;;;;;5097169;28;20134;-76
2021/06/05 10:43:54;;;;;;;2.13;1.15;;;26.50;37.90;;;;;;5096564;28;20008;-76
2021/06/05 10:46:52;;;;;;;1.58;1.05;;;26.80;35.60;;;;;;5096284;28;20005;-75
2021/06/05 10:49:25;;;;;;;3.00;0.90;;;26.90;37.90;;;;;;5096410;28;20017;-75
2021/06/05 10:51:57;;;;;;;1.30;1.00;;;26.70;37.90;;;;;;5096597;28;20016;-75
2021/06/05 10:54:25;;;;;;;1.92;1.25;;;26.80;38.60;;;;;;5095838;28;20009;-75
2021/06/05 10:56:57;;;;;;;2.70;1.13;;;26.80;37.40;;;;;;5096226;28;20027;-75
2021/06/05 10:59:39;;;;;;;5.53;1.58;;;27.00;37.90;;;;;;5096720;28;20057;-76
2021/06/05 11:02:05;;;;;;;2.78;1.40;;;26.80;38.50;;;;;;5095497;28;20034;-75
2021/06/05 11:04:31;;;;;;;1.58;1.20;;;26.60;38.20;;;;;;5094729;28;20005;-75
2021/06/05 11:07:02;;;;;;;2.30;1.38;;;26.20;39.10;;;;;;5095930;28;20036;-74
2021/06/05 11:09:29;;;;;;;2.42;1.17;;;25.90;39.40;;;;;;5095601;28;20075;-74
2021/06/05 11:11:59;;;;;;;1.45;1.17;;;25.80;40.30;;;;;;5093483;28;20016;-75
2021/06/05 11:14:37;;;;;;;3.75;1.77;;;25.60;41.10;;;;;;5094798;28;20008;-75
2021/06/05 11:17:25;;;;;;;3.97;1.50;;;25.50;41.40;;;;;;5096119;28;20020;-74
2021/06/05 11:20:11;;;;;;;2.60;1.60;;;25.40;41.10;;;;;;5096546;28;20004;-75
2021/06/05 11:22:53;;;;;;;4.68;2.90;;;25.40;42.40;;;;;;5075469;28;20005;-74
2021/06/05 11:25:34;;;;;;;12.77;6.82;;;25.30;43.30;;;;;;5076481;28;20008;-75
2021/06/05 11:28:25;;;;;;;7.45;3.50;;;25.20;42.20;;;;;;5076048;28;20073;-75
2021/06/05 11:30:51;;;;;;;4.35;2.20;;;25.20;40.30;;;;;;5075164;28;20013;-75
2021/06/05 11:33:39;;;;;;;4.13;2.10;;;25.30;39.90;;;;;;5083784;28;20015;-75
2021/06/05 11:36:33;;;;;;;6.72;3.28;;;25.00;41.90;;;;;;5096160;28;20024;-75
2021/06/05 11:39:00;;;;;;;4.07;2.13;;;24.70;43.80;;;;;;5096236;28;20035;-75
2021/06/05 11:41:43;;;;;;;6.70;2.58;;;24.60;44.00;;;;;;5095435;28;20068;-74
2021/06/05 11:44:31;;;;;;;3.08;1.95;;;24.40;46.00;;;;;;5095995;28;20004;-75
2021/06/05 11:47:00;;;;;;;2.85;1.40;;;24.30;46.70;;;;;;5078128;28;20009;-76
2021/06/05 11:49:41;;;;;;;4.55;1.58;;;24.40;47.10;;;;;;5094141;28;20004;-76
2021/06/05 11:52:26;;;;;;;1.83;1.30;;;24.50;46.30;;;;;;5094548;28;20001;-76
2021/06/05 11:55:23;;;;;;;2.97;1.83;;;24.60;44.50;;;;;;5093790;28;20042;-76
2021/06/05 11:57:52;;;;;;;4.40;1.88;;;24.70;43.60;;;;;;5093624;28;20024;-76
2021/06/05 12:00:20;;;;;;;1.85;1.48;;;24.50;43.40;;;;;;5096442;28;20032;-76
2021/06/05 12:02:53;;;;;;;2.88;1.60;;;24.40;43.90;;;;;;5096511;28;20021;-76
2021/06/05 12:05:27;;;;;;;6.20;1.30;;;24.40;43.50;;;;;;5096775;28;20040;-76
2021/06/05 12:07:53;;;;;;;3.80;1.50;;;24.60;43.00;;;;;;5096809;28;20025;-76
2021/06/05 12:10:38;;;;;;;1.80;1.40;;;24.70;42.70;;;;;;5096404;28;20025;-76
2021/06/05 12:13:04;;;;;;;3.67;1.45;;;24.70;42.60;;;;;;5093178;28;20048;-75
2021/06/05 12:15:37;;;;;;;1.98;1.38;;;24.70;42.40;;;;;;5106979;28;20025;-76
2021/06/05 12:18:06;;;;;;;4.40;1.40;;;24.80;42.50;;;;;;5093797;28;20028;-76
2021/06/05 12:20:40;;;;;;;2.55;1.40;;;25.00;42.20;;;;;;5100438;28;20092;-76
2021/06/05 12:23:38;;;;;;;2.88;1.55;;;25.10;42.10;;;;;;5100564;28;20001;-76
2021/06/05 12:26:07;;;;;;;2.40;1.50;;;24.90;42.50;;;;;;5100199;28;20044;-76
2021/06/05 12:28:38;;;;;;;3.58;1.38;;;24.80;42.40;;;;;;5083236;28;20043;-76
2021/06/05 12:31:21;;;;;;;2.53;1.33;;;25.00;41.60;;;;;;5082270;28;20028;-76
2021/06/05 12:34:01;;;;;;;4.47;1.88;;;25.10;40.30;;;;;;5098583;28;20323;-75
2021/06/05 12:36:33;;;;;;;3.85;1.60;;;24.60;41.20;;;;;;5097690;28;20043;-76
2021/06/05 12:39:43;;;;;;;3.33;1.75;;;24.30;42.20;;;;;;5098685;28;20015;-75
2021/06/05 12:42:10;;;;;;;3.95;1.65;;;24.50;43.00;;;;;;5098305;28;20020;-75
2021/06/05 12:44:36;;;;;;;4.70;2.55;;;24.50;42.60;;;;;;5097163;28;20017;-76
2021/06/05 12:47:26;;;;;;;2.90;1.70;;;24.60;42.90;;;;;;5096237;28;20039;-75
2021/06/05 12:49:52;;;;;;;4.53;1.73;;;24.60;42.10;;;;;;5080124;28;20012;-76
2021/06/05 12:52:28;;;;;;;2.28;1.40;;;24.40;42.10;;;;;;5097759;28;20019;-75
2021/06/05 12:55:11;;;;;;;4.75;1.70;;;24.50;42.60;;;;;;5080429;28;20013;-76
2021/06/05 12:57:51;;;;;;;5.85;2.00;;;24.70;42.60;;;;;;5096769;28;20032;-76
2021/06/05 13:00:31;;;;;;;5.90;2.42;;;24.90;41.40;;;;;;5096944;28;20012;-76